sensor_id;sensor_type;location;lat;lon;timestamp;P1;durP1;ratioP1;P2;durP2;ratioP2
11111;SDS011;5609;49.466;8.468;2023-07-29T00:00:43;5.63;;;5.13;;
11111;SDS011;5609;49.466;8.468;2023-07-29T00:03:10;6.03;;;5.50;;
11111;SDS011;5609;49.466;8.468;2023-07-29T00:05:37;3.90;;;3.57;;
11111;SDS011;5609;49.466;8.468;2023-07-29T00:08:05;4.90;;;4.37;;
11111;SDS011;5609;49.466;8.468;2023-07-29T00:10:32;4.83;;;3.43;;
11111;SDS011;5609;49.466;8.468;2023-07-29T00:12:59;6.10;;;4.47;;
11111;SDS011;5609;49.466;8.468;2023-07-29T00:15:26;6.73;;;4.07;;
11111;SDS011;5609;49.466;8.468;2023-07-29T00:17:55;5.70;;;5.20;;
11111;SDS011;5609;49.466;8.468;2023-07-29T00:20:22;5.60;;;5.00;;
11111;SDS011;5609;49.466;8.468;2023-07-29T00:22:49;5.50;;;5.00;;
11111;SDS011;5609;49.466;8.468;2023-07-29T00:25:18;6.37;;;5.47;;
11111;SDS011;5609;49.466;8.468;2023-07-29T00:27:45;5.00;;;4.17;;
11111;SDS011;5609;49.466;8.468;2023-07-29T00:30:12;5.17;;;4.67;;
11111;SDS011;5609;49.466;8.468;2023-07-29T00:32:39;4.17;;;3.70;;
11111;SDS011;5609;49.466;8.468;2023-07-29T00:35:08;4.67;;;4.27;;
11111;SDS011;5609;49.466;8.468;2023-07-29T00:37:35;5.57;;;4.60;;
11111;SDS011;5609;49.466;8.468;2023-07-29T00:40:04;6.50;;;5.90;;
11111;SDS011;5609;49.466;8.468;2023-07-29T00:42:31;5.37;;;4.83;;
11111;SDS011;5609;49.466;8.468;2023-07-29T00:44:58;7.57;;;5.10;;
11111;SDS011;5609;49.466;8.468;2023-07-29T00:47:25;6.97;;;4.70;;
11111;SDS011;5609;49.466;8.468;2023-07-29T00:49:52;5.20;;;4.70;;
11111;SDS011;5609;49.466;8.468;2023-07-29T00:52:20;4.83;;;4.43;;
11111;SDS011;5609;49.466;8.468;2023-07-29T00:54:47;5.40;;;3.67;;
11111;SDS011;5609;49.466;8.468;2023-07-29T00:57:14;3.67;;;2.80;;
11111;SDS011;5609;49.466;8.468;2023-07-29T00:59:42;4.70;;;4.20;;
11111;SDS011;5609;49.466;8.468;2023-07-29T01:02:09;3.90;;;3.50;;
11111;SDS011;5609;49.466;8.468;2023-07-29T01:04:36;4.93;;;4.40;;
11111;SDS011;5609;49.466;8.468;2023-07-29T01:07:06;5.43;;;4.17;;
11111;SDS011;5609;49.466;8.468;2023-07-29T01:09:36;5.00;;;4.57;;
11111;SDS011;5609;49.466;8.468;2023-07-29T01:12:08;5.20;;;4.70;;
11111;SDS011;5609;49.466;8.468;2023-07-29T01:14:39;6.23;;;3.20;;
11111;SDS011;5609;49.466;8.468;2023-07-29T01:17:08;4.93;;;2.27;;
11111;SDS011;5609;49.466;8.468;2023-07-29T01:19:42;6.33;;;3.77;;
11111;SDS011;5609;49.466;8.468;2023-07-29T01:22:10;4.67;;;4.20;;
11111;SDS011;5609;49.466;8.468;2023-07-29T01:24:39;5.47;;;4.17;;
11111;SDS011;5609;49.466;8.468;2023-07-29T01:27:06;4.00;;;3.60;;
11111;SDS011;5609;49.466;8.468;2023-07-29T01:29:33;5.63;;;5.00;;
11111;SDS011;5609;49.466;8.468;2023-07-29T01:32:01;6.03;;;3.60;;
11111;SDS011;5609;49.466;8.468;2023-07-29T01:34:31;6.23;;;3.90;;
11111;SDS011;5609;49.466;8.468;2023-07-29T01:36:59;6.63;;;3.70;;
11111;SDS011;5609;49.466;8.468;2023-07-29T01:39:29;6.53;;;4.50;;
11111;SDS011;5609;49.466;8.468;2023-07-29T01:42:01;5.03;;;4.20;;
11111;SDS011;5609;49.466;8.468;2023-07-29T01:44:28;7.37;;;4.53;;
11111;SDS011;5609;49.466;8.468;2023-07-29T01:46:55;6.87;;;4.50;;
11111;SDS011;5609;49.466;8.468;2023-07-29T01:49:22;4.97;;;3.73;;
11111;SDS011;5609;49.466;8.468;2023-07-29T01:51:49;7.17;;;4.47;;
11111;SDS011;5609;49.466;8.468;2023-07-29T01:54:17;4.23;;;3.53;;
11111;SDS011;5609;49.466;8.468;2023-07-29T01:56:44;5.13;;;4.63;;
11111;SDS011;5609;49.466;8.468;2023-07-29T01:59:12;13.13;;;5.30;;
11111;SDS011;5609;49.466;8.468;2023-07-29T02:01:41;8.03;;;4.70;;
11111;SDS011;5609;49.466;8.468;2023-07-29T02:04:08;7.90;;;4.50;;
11111;SDS011;5609;49.466;8.468;2023-07-29T02:06:35;6.17;;;4.20;;
11111;SDS011;5609;49.466;8.468;2023-07-29T02:09:02;6.47;;;4.57;;
11111;SDS011;5609;49.466;8.468;2023-07-29T02:11:29;10.77;;;4.80;;
11111;SDS011;5609;49.466;8.468;2023-07-29T02:13:56;7.20;;;3.83;;
11111;SDS011;5609;49.466;8.468;2023-07-29T02:16:25;8.03;;;4.73;;
11111;SDS011;5609;49.466;8.468;2023-07-29T02:18:52;5.20;;;4.33;;
11111;SDS011;5609;49.466;8.468;2023-07-29T02:21:19;5.23;;;3.37;;
11111;SDS011;5609;49.466;8.468;2023-07-29T02:23:46;8.07;;;4.33;;
11111;SDS011;5609;49.466;8.468;2023-07-29T02:26:13;3.13;;;2.53;;
11111;SDS011;5609;49.466;8.468;2023-07-29T02:28:40;3.10;;;2.40;;
11111;SDS011;5609;49.466;8.468;2023-07-29T02:31:14;5.67;;;4.13;;
11111;SDS011;5609;49.466;8.468;2023-07-29T02:33:43;4.93;;;3.70;;
11111;SDS011;5609;49.466;8.468;2023-07-29T02:36:11;5.83;;;3.53;;
11111;SDS011;5609;49.466;8.468;2023-07-29T02:38:38;7.53;;;4.30;;
11111;SDS011;5609;49.466;8.468;2023-07-29T02:41:05;5.00;;;3.37;;
11111;SDS011;5609;49.466;8.468;2023-07-29T02:43:33;3.43;;;2.83;;
11111;SDS011;5609;49.466;8.468;2023-07-29T02:46:01;4.63;;;3.57;;
11111;SDS011;5609;49.466;8.468;2023-07-29T02:48:28;4.90;;;3.27;;
11111;SDS011;5609;49.466;8.468;2023-07-29T02:50:56;3.60;;;3.10;;
11111;SDS011;5609;49.466;8.468;2023-07-29T02:53:23;5.33;;;3.57;;
11111;SDS011;5609;49.466;8.468;2023-07-29T02:55:50;5.27;;;3.53;;
11111;SDS011;5609;49.466;8.468;2023-07-29T02:58:17;9.00;;;3.77;;
11111;SDS011;5609;49.466;8.468;2023-07-29T03:00:44;7.77;;;4.60;;
11111;SDS011;5609;49.466;8.468;2023-07-29T03:03:13;3.93;;;2.73;;
11111;SDS011;5609;49.466;8.468;2023-07-29T03:05:40;3.43;;;2.80;;
11111;SDS011;5609;49.466;8.468;2023-07-29T03:08:09;5.23;;;2.67;;
11111;SDS011;5609;49.466;8.468;2023-07-29T03:10:36;7.70;;;4.77;;
11111;SDS011;5609;49.466;8.468;2023-07-29T03:13:03;5.13;;;3.43;;
11111;SDS011;5609;49.466;8.468;2023-07-29T03:15:30;6.70;;;3.80;;
11111;SDS011;5609;49.466;8.468;2023-07-29T03:17:59;6.33;;;3.90;;
11111;SDS011;5609;49.466;8.468;2023-07-29T03:20:26;7.17;;;4.07;;
11111;SDS011;5609;49.466;8.468;2023-07-29T03:22:53;6.07;;;3.63;;
11111;SDS011;5609;49.466;8.468;2023-07-29T03:25:21;3.77;;;2.80;;
11111;SDS011;5609;49.466;8.468;2023-07-29T03:27:48;4.93;;;3.50;;
11111;SDS011;5609;49.466;8.468;2023-07-29T03:30:18;4.30;;;2.63;;
11111;SDS011;5609;49.466;8.468;2023-07-29T03:32:45;4.00;;;2.67;;
11111;SDS011;5609;49.466;8.468;2023-07-29T03:35:12;3.77;;;3.20;;
11111;SDS011;5609;49.466;8.468;2023-07-29T03:37:39;4.63;;;3.57;;
11111;SDS011;5609;49.466;8.468;2023-07-29T03:40:07;3.83;;;3.40;;
11111;SDS011;5609;49.466;8.468;2023-07-29T03:42:36;3.70;;;2.80;;
11111;SDS011;5609;49.466;8.468;2023-07-29T03:45:03;6.70;;;3.40;;
11111;SDS011;5609;49.466;8.468;2023-07-29T03:47:30;4.20;;;2.80;;
11111;SDS011;5609;49.466;8.468;2023-07-29T03:49:58;5.47;;;3.80;;
11111;SDS011;5609;49.466;8.468;2023-07-29T03:52:25;4.50;;;2.40;;
11111;SDS011;5609;49.466;8.468;2023-07-29T03:54:52;4.70;;;3.50;;
11111;SDS011;5609;49.466;8.468;2023-07-29T03:57:19;3.10;;;2.80;;
11111;SDS011;5609;49.466;8.468;2023-07-29T03:59:47;5.63;;;3.33;;
11111;SDS011;5609;49.466;8.468;2023-07-29T04:02:14;4.40;;;3.23;;
11111;SDS011;5609;49.466;8.468;2023-07-29T04:04:41;4.43;;;3.10;;
11111;SDS011;5609;49.466;8.468;2023-07-29T04:07:12;4.07;;;3.17;;
11111;SDS011;5609;49.466;8.468;2023-07-29T04:09:39;2.90;;;2.60;;
11111;SDS011;5609;49.466;8.468;2023-07-29T04:12:08;4.33;;;3.00;;
11111;SDS011;5609;49.466;8.468;2023-07-29T04:14:35;2.83;;;2.53;;
11111;SDS011;5609;49.466;8.468;2023-07-29T04:17:04;5.47;;;2.70;;
11111;SDS011;5609;49.466;8.468;2023-07-29T04:19:31;4.47;;;2.70;;
11111;SDS011;5609;49.466;8.468;2023-07-29T04:21:58;3.23;;;2.40;;
11111;SDS011;5609;49.466;8.468;2023-07-29T04:24:25;7.30;;;2.80;;
11111;SDS011;5609;49.466;8.468;2023-07-29T04:26:52;5.93;;;2.77;;
11111;SDS011;5609;49.466;8.468;2023-07-29T04:29:19;5.57;;;2.07;;
11111;SDS011;5609;49.466;8.468;2023-07-29T04:31:47;2.53;;;2.10;;
11111;SDS011;5609;49.466;8.468;2023-07-29T04:34:16;2.70;;;2.10;;
11111;SDS011;5609;49.466;8.468;2023-07-29T04:36:43;4.57;;;2.17;;
11111;SDS011;5609;49.466;8.468;2023-07-29T04:39:10;3.17;;;2.07;;
11111;SDS011;5609;49.466;8.468;2023-07-29T04:41:37;4.67;;;1.97;;
11111;SDS011;5609;49.466;8.468;2023-07-29T04:44:04;4.80;;;2.30;;
11111;SDS011;5609;49.466;8.468;2023-07-29T04:46:32;2.70;;;2.33;;
11111;SDS011;5609;49.466;8.468;2023-07-29T04:48:59;2.63;;;2.20;;
11111;SDS011;5609;49.466;8.468;2023-07-29T04:51:27;3.67;;;2.50;;
11111;SDS011;5609;49.466;8.468;2023-07-29T04:53:54;4.53;;;2.50;;
11111;SDS011;5609;49.466;8.468;2023-07-29T04:56:21;4.27;;;3.00;;
11111;SDS011;5609;49.466;8.468;2023-07-29T04:58:48;3.27;;;2.97;;
11111;SDS011;5609;49.466;8.468;2023-07-29T05:01:15;3.13;;;2.80;;
11111;SDS011;5609;49.466;8.468;2023-07-29T05:03:42;4.47;;;3.07;;
11111;SDS011;5609;49.466;8.468;2023-07-29T05:06:09;3.50;;;2.90;;
11111;SDS011;5609;49.466;8.468;2023-07-29T05:08:37;4.30;;;3.40;;
11111;SDS011;5609;49.466;8.468;2023-07-29T05:11:04;5.33;;;3.30;;
11111;SDS011;5609;49.466;8.468;2023-07-29T05:13:31;3.50;;;3.20;;
11111;SDS011;5609;49.466;8.468;2023-07-29T05:15:58;3.70;;;2.90;;
11111;SDS011;5609;49.466;8.468;2023-07-29T05:18:25;4.90;;;3.30;;
11111;SDS011;5609;49.466;8.468;2023-07-29T05:20:52;3.10;;;2.80;;
11111;SDS011;5609;49.466;8.468;2023-07-29T05:23:19;2.97;;;2.77;;
11111;SDS011;5609;49.466;8.468;2023-07-29T05:25:48;3.20;;;2.90;;
11111;SDS011;5609;49.466;8.468;2023-07-29T05:28:15;3.37;;;2.70;;
11111;SDS011;5609;49.466;8.468;2023-07-29T05:30:43;4.80;;;3.03;;
11111;SDS011;5609;49.466;8.468;2023-07-29T05:33:10;3.60;;;2.80;;
11111;SDS011;5609;49.466;8.468;2023-07-29T05:35:37;4.10;;;3.00;;
11111;SDS011;5609;49.466;8.468;2023-07-29T05:38:04;2.87;;;2.40;;
11111;SDS011;5609;49.466;8.468;2023-07-29T05:40:33;2.80;;;2.60;;
11111;SDS011;5609;49.466;8.468;2023-07-29T05:43:01;4.13;;;2.47;;
11111;SDS011;5609;49.466;8.468;2023-07-29T05:45:29;2.87;;;2.43;;
11111;SDS011;5609;49.466;8.468;2023-07-29T05:47:56;3.07;;;2.10;;
11111;SDS011;5609;49.466;8.468;2023-07-29T05:50:23;2.80;;;2.00;;
11111;SDS011;5609;49.466;8.468;2023-07-29T05:52:50;7.37;;;2.50;;
11111;SDS011;5609;49.466;8.468;2023-07-29T05:55:17;2.30;;;2.10;;
11111;SDS011;5609;49.466;8.468;2023-07-29T05:57:44;3.97;;;2.00;;
11111;SDS011;5609;49.466;8.468;2023-07-29T06:00:13;3.20;;;2.30;;
11111;SDS011;5609;49.466;8.468;2023-07-29T06:02:40;2.50;;;2.17;;
11111;SDS011;5609;49.466;8.468;2023-07-29T06:05:07;2.60;;;2.00;;
11111;SDS011;5609;49.466;8.468;2023-07-29T06:07:34;2.67;;;2.00;;
11111;SDS011;5609;49.466;8.468;2023-07-29T06:10:01;2.73;;;2.00;;
11111;SDS011;5609;49.466;8.468;2023-07-29T06:12:28;2.87;;;1.87;;
11111;SDS011;5609;49.466;8.468;2023-07-29T06:14:55;2.00;;;1.80;;
11111;SDS011;5609;49.466;8.468;2023-07-29T06:17:23;3.10;;;2.00;;
11111;SDS011;5609;49.466;8.468;2023-07-29T06:19:50;2.10;;;1.90;;
11111;SDS011;5609;49.466;8.468;2023-07-29T06:22:17;2.30;;;2.10;;
11111;SDS011;5609;49.466;8.468;2023-07-29T06:24:44;2.53;;;1.97;;
11111;SDS011;5609;49.466;8.468;2023-07-29T06:27:11;3.03;;;2.30;;
11111;SDS011;5609;49.466;8.468;2023-07-29T06:29:39;2.30;;;2.10;;
11111;SDS011;5609;49.466;8.468;2023-07-29T06:32:06;3.33;;;2.30;;
11111;SDS011;5609;49.466;8.468;2023-07-29T06:34:34;3.57;;;2.50;;
11111;SDS011;5609;49.466;8.468;2023-07-29T06:37:01;2.97;;;2.30;;
11111;SDS011;5609;49.466;8.468;2023-07-29T06:39:28;2.57;;;2.37;;
11111;SDS011;5609;49.466;8.468;2023-07-29T06:41:55;4.43;;;2.50;;
11111;SDS011;5609;49.466;8.468;2023-07-29T06:44:22;3.37;;;2.40;;
11111;SDS011;5609;49.466;8.468;2023-07-29T06:46:49;2.53;;;2.33;;
11111;SDS011;5609;49.466;8.468;2023-07-29T06:49:16;2.63;;;2.43;;
11111;SDS011;5609;49.466;8.468;2023-07-29T06:51:45;3.53;;;2.50;;
11111;SDS011;5609;49.466;8.468;2023-07-29T06:54:12;2.50;;;2.30;;
11111;SDS011;5609;49.466;8.468;2023-07-29T06:56:39;2.67;;;2.43;;
11111;SDS011;5609;49.466;8.468;2023-07-29T06:59:06;3.40;;;2.73;;
11111;SDS011;5609;49.466;8.468;2023-07-29T07:01:33;3.93;;;2.47;;
11111;SDS011;5609;49.466;8.468;2023-07-29T07:04:00;2.97;;;2.63;;
11111;SDS011;5609;49.466;8.468;2023-07-29T07:06:27;3.03;;;2.73;;
11111;SDS011;5609;49.466;8.468;2023-07-29T07:08:55;3.77;;;2.70;;
11111;SDS011;5609;49.466;8.468;2023-07-29T07:11:22;3.60;;;2.53;;
11111;SDS011;5609;49.466;8.468;2023-07-29T07:13:50;4.60;;;2.87;;
11111;SDS011;5609;49.466;8.468;2023-07-29T07:16:18;3.73;;;2.50;;
11111;SDS011;5609;49.466;8.468;2023-07-29T07:18:45;2.67;;;2.47;;
11111;SDS011;5609;49.466;8.468;2023-07-29T07:21:12;3.07;;;2.57;;
11111;SDS011;5609;49.466;8.468;2023-07-29T07:23:39;4.50;;;2.70;;
11111;SDS011;5609;49.466;8.468;2023-07-29T07:26:07;3.83;;;2.80;;
11111;SDS011;5609;49.466;8.468;2023-07-29T07:28:34;3.27;;;2.70;;
11111;SDS011;5609;49.466;8.468;2023-07-29T07:31:01;3.77;;;2.30;;
11111;SDS011;5609;49.466;8.468;2023-07-29T07:33:28;2.10;;;1.90;;
11111;SDS011;5609;49.466;8.468;2023-07-29T07:35:55;3.63;;;2.30;;
11111;SDS011;5609;49.466;8.468;2023-07-29T07:38:22;2.80;;;2.00;;
11111;SDS011;5609;49.466;8.468;2023-07-29T07:40:53;2.13;;;1.93;;
11111;SDS011;5609;49.466;8.468;2023-07-29T07:43:22;3.17;;;1.90;;
11111;SDS011;5609;49.466;8.468;2023-07-29T07:45:49;2.37;;;1.97;;
11111;SDS011;5609;49.466;8.468;2023-07-29T07:48:16;3.73;;;2.20;;
11111;SDS011;5609;49.466;8.468;2023-07-29T07:50:45;2.37;;;1.80;;
11111;SDS011;5609;49.466;8.468;2023-07-29T07:53:12;3.13;;;2.00;;
11111;SDS011;5609;49.466;8.468;2023-07-29T07:55:39;1.80;;;1.70;;
11111;SDS011;5609;49.466;8.468;2023-07-29T07:58:06;2.60;;;2.00;;
11111;SDS011;5609;49.466;8.468;2023-07-29T08:00:34;3.43;;;2.10;;
11111;SDS011;5609;49.466;8.468;2023-07-29T08:03:01;3.67;;;1.90;;
11111;SDS011;5609;49.466;8.468;2023-07-29T08:05:28;3.20;;;1.90;;
11111;SDS011;5609;49.466;8.468;2023-07-29T08:07:55;4.50;;;1.90;;
11111;SDS011;5609;49.466;8.468;2023-07-29T08:10:23;1.77;;;1.60;;
11111;SDS011;5609;49.466;8.468;2023-07-29T08:12:50;4.40;;;1.70;;
11111;SDS011;5609;49.466;8.468;2023-07-29T08:15:17;2.83;;;1.77;;
11111;SDS011;5609;49.466;8.468;2023-07-29T08:17:46;2.30;;;2.10;;
11111;SDS011;5609;49.466;8.468;2023-07-29T08:20:13;4.60;;;2.13;;
11111;SDS011;5609;49.466;8.468;2023-07-29T08:22:40;3.27;;;2.00;;
11111;SDS011;5609;49.466;8.468;2023-07-29T08:25:08;2.30;;;1.80;;
11111;SDS011;5609;49.466;8.468;2023-07-29T08:27:35;3.50;;;2.07;;
11111;SDS011;5609;49.466;8.468;2023-07-29T08:30:02;3.20;;;1.90;;
11111;SDS011;5609;49.466;8.468;2023-07-29T08:32:29;2.80;;;1.80;;
11111;SDS011;5609;49.466;8.468;2023-07-29T08:34:57;3.60;;;2.00;;
11111;SDS011;5609;49.466;8.468;2023-07-29T08:37:24;3.07;;;1.90;;
11111;SDS011;5609;49.466;8.468;2023-07-29T08:39:52;2.17;;;1.97;;
11111;SDS011;5609;49.466;8.468;2023-07-29T08:42:19;1.73;;;1.60;;
11111;SDS011;5609;49.466;8.468;2023-07-29T08:44:47;2.77;;;1.90;;
11111;SDS011;5609;49.466;8.468;2023-07-29T08:47:15;2.03;;;1.80;;
11111;SDS011;5609;49.466;8.468;2023-07-29T08:49:43;2.90;;;1.80;;
11111;SDS011;5609;49.466;8.468;2023-07-29T08:52:12;3.10;;;1.80;;
11111;SDS011;5609;49.466;8.468;2023-07-29T08:54:40;1.90;;;1.70;;
11111;SDS011;5609;49.466;8.468;2023-07-29T08:57:07;2.37;;;2.00;;
11111;SDS011;5609;49.466;8.468;2023-07-29T08:59:35;2.87;;;1.73;;
11111;SDS011;5609;49.466;8.468;2023-07-29T09:02:02;2.43;;;2.00;;
11111;SDS011;5609;49.466;8.468;2023-07-29T09:04:29;3.00;;;2.10;;
11111;SDS011;5609;49.466;8.468;2023-07-29T09:06:56;2.73;;;1.77;;
11111;SDS011;5609;49.466;8.468;2023-07-29T09:09:26;2.70;;;1.80;;
11111;SDS011;5609;49.466;8.468;2023-07-29T09:11:53;2.07;;;1.90;;
11111;SDS011;5609;49.466;8.468;2023-07-29T09:14:20;3.43;;;1.70;;
11111;SDS011;5609;49.466;8.468;2023-07-29T09:16:47;2.83;;;1.70;;
11111;SDS011;5609;49.466;8.468;2023-07-29T09:19:14;1.97;;;1.77;;
11111;SDS011;5609;49.466;8.468;2023-07-29T09:21:42;2.90;;;1.90;;
11111;SDS011;5609;49.466;8.468;2023-07-29T09:24:09;2.33;;;1.77;;
11111;SDS011;5609;49.466;8.468;2023-07-29T09:26:40;2.87;;;2.40;;
11111;SDS011;5609;49.466;8.468;2023-07-29T09:29:14;1.80;;;1.70;;
11111;SDS011;5609;49.466;8.468;2023-07-29T09:31:41;3.20;;;1.90;;
11111;SDS011;5609;49.466;8.468;2023-07-29T09:34:08;2.23;;;1.50;;
11111;SDS011;5609;49.466;8.468;2023-07-29T09:36:35;3.90;;;1.70;;
11111;SDS011;5609;49.466;8.468;2023-07-29T09:39:02;2.10;;;1.40;;
11111;SDS011;5609;49.466;8.468;2023-07-29T09:41:29;1.63;;;1.50;;
11111;SDS011;5609;49.466;8.468;2023-07-29T09:43:58;2.80;;;1.60;;
11111;SDS011;5609;49.466;8.468;2023-07-29T09:46:31;2.37;;;1.50;;
11111;SDS011;5609;49.466;8.468;2023-07-29T09:48:58;2.00;;;1.70;;
11111;SDS011;5609;49.466;8.468;2023-07-29T09:51:25;1.77;;;1.53;;
11111;SDS011;5609;49.466;8.468;2023-07-29T09:53:52;3.83;;;1.90;;
11111;SDS011;5609;49.466;8.468;2023-07-29T09:56:23;3.27;;;1.87;;
11111;SDS011;5609;49.466;8.468;2023-07-29T09:58:51;2.47;;;1.57;;
11111;SDS011;5609;49.466;8.468;2023-07-29T10:01:19;2.33;;;1.87;;
11111;SDS011;5609;49.466;8.468;2023-07-29T10:03:46;2.47;;;1.63;;
11111;SDS011;5609;49.466;8.468;2023-07-29T10:06:14;3.77;;;1.70;;
11111;SDS011;5609;49.466;8.468;2023-07-29T10:08:42;2.20;;;1.53;;
11111;SDS011;5609;49.466;8.468;2023-07-29T10:11:09;2.50;;;1.80;;
11111;SDS011;5609;49.466;8.468;2023-07-29T10:13:37;1.83;;;1.70;;
11111;SDS011;5609;49.466;8.468;2023-07-29T10:16:04;2.90;;;1.60;;
11111;SDS011;5609;49.466;8.468;2023-07-29T10:18:33;1.50;;;1.40;;
11111;SDS011;5609;49.466;8.468;2023-07-29T10:21:01;2.20;;;1.60;;
11111;SDS011;5609;49.466;8.468;2023-07-29T10:23:31;1.90;;;1.53;;
11111;SDS011;5609;49.466;8.468;2023-07-29T10:26:01;1.73;;;1.50;;
11111;SDS011;5609;49.466;8.468;2023-07-29T10:28:29;2.10;;;1.50;;
11111;SDS011;5609;49.466;8.468;2023-07-29T10:30:56;1.73;;;1.60;;
11111;SDS011;5609;49.466;8.468;2023-07-29T10:33:24;1.60;;;1.50;;
11111;SDS011;5609;49.466;8.468;2023-07-29T10:35:52;4.27;;;1.63;;
11111;SDS011;5609;49.466;8.468;2023-07-29T10:38:20;1.80;;;1.70;;
11111;SDS011;5609;49.466;8.468;2023-07-29T10:40:50;2.73;;;1.73;;
11111;SDS011;5609;49.466;8.468;2023-07-29T10:43:18;2.07;;;1.50;;
11111;SDS011;5609;49.466;8.468;2023-07-29T10:45:46;1.57;;;1.43;;
11111;SDS011;5609;49.466;8.468;2023-07-29T10:53:43;1.60;;;1.50;;
11111;SDS011;5609;49.466;8.468;2023-07-29T10:56:10;1.77;;;1.50;;
11111;SDS011;5609;49.466;8.468;2023-07-29T10:58:39;1.50;;;1.40;;
11111;SDS011;5609;49.466;8.468;2023-07-29T11:01:12;2.23;;;1.50;;
11111;SDS011;5609;49.466;8.468;2023-07-29T11:03:39;1.60;;;1.50;;
11111;SDS011;5609;49.466;8.468;2023-07-29T11:06:06;2.20;;;1.60;;
11111;SDS011;5609;49.466;8.468;2023-07-29T11:08:33;2.37;;;1.57;;
11111;SDS011;5609;49.466;8.468;2023-07-29T11:11:04;2.43;;;1.50;;
11111;SDS011;5609;49.466;8.468;2023-07-29T11:13:32;2.53;;;1.53;;
11111;SDS011;5609;49.466;8.468;2023-07-29T11:15:59;1.40;;;1.30;;
11111;SDS011;5609;49.466;8.468;2023-07-29T11:18:27;1.27;;;1.17;;
11111;SDS011;5609;49.466;8.468;2023-07-29T11:20:53;1.63;;;1.30;;
11111;SDS011;5609;49.466;8.468;2023-07-29T11:23:20;1.67;;;1.57;;
11111;SDS011;5609;49.466;8.468;2023-07-29T11:25:48;2.80;;;1.40;;
11111;SDS011;5609;49.466;8.468;2023-07-29T11:28:17;3.07;;;1.73;;
11111;SDS011;5609;49.466;8.468;2023-07-29T11:30:44;3.33;;;1.50;;
11111;SDS011;5609;49.466;8.468;2023-07-29T11:33:11;1.60;;;1.50;;
11111;SDS011;5609;49.466;8.468;2023-07-29T11:35:39;2.27;;;1.50;;
11111;SDS011;5609;49.466;8.468;2023-07-29T11:38:06;2.10;;;1.50;;
11111;SDS011;5609;49.466;8.468;2023-07-29T11:40:33;2.10;;;1.60;;
11111;SDS011;5609;49.466;8.468;2023-07-29T11:43:00;1.70;;;1.43;;
11111;SDS011;5609;49.466;8.468;2023-07-29T11:45:28;1.83;;;1.50;;
11111;SDS011;5609;49.466;8.468;2023-07-29T11:47:55;1.53;;;1.43;;
11111;SDS011;5609;49.466;8.468;2023-07-29T11:50:23;2.03;;;1.30;;
11111;SDS011;5609;49.466;8.468;2023-07-29T11:52:50;1.63;;;1.47;;
11111;SDS011;5609;49.466;8.468;2023-07-29T11:55:17;1.60;;;1.50;;
11111;SDS011;5609;49.466;8.468;2023-07-29T11:57:44;1.50;;;1.40;;
11111;SDS011;5609;49.466;8.468;2023-07-29T12:00:14;2.40;;;1.57;;
11111;SDS011;5609;49.466;8.468;2023-07-29T12:02:44;1.73;;;1.50;;
11111;SDS011;5609;49.466;8.468;2023-07-29T12:05:12;1.50;;;1.40;;
11111;SDS011;5609;49.466;8.468;2023-07-29T12:07:40;1.50;;;1.40;;
11111;SDS011;5609;49.466;8.468;2023-07-29T12:10:08;1.97;;;1.70;;
11111;SDS011;5609;49.466;8.468;2023-07-29T12:12:38;1.60;;;1.50;;
11111;SDS011;5609;49.466;8.468;2023-07-29T12:15:05;1.80;;;1.50;;
11111;SDS011;5609;49.466;8.468;2023-07-29T12:17:37;2.77;;;1.50;;
11111;SDS011;5609;49.466;8.468;2023-07-29T12:20:07;2.07;;;1.50;;
11111;SDS011;5609;49.466;8.468;2023-07-29T12:22:34;2.13;;;1.40;;
11111;SDS011;5609;49.466;8.468;2023-07-29T12:25:01;3.73;;;1.83;;
11111;SDS011;5609;49.466;8.468;2023-07-29T12:27:29;2.77;;;1.70;;
11111;SDS011;5609;49.466;8.468;2023-07-29T12:29:57;3.30;;;1.53;;
11111;SDS011;5609;49.466;8.468;2023-07-29T12:32:25;2.07;;;1.60;;
11111;SDS011;5609;49.466;8.468;2023-07-29T12:34:53;3.27;;;1.70;;
11111;SDS011;5609;49.466;8.468;2023-07-29T12:37:30;2.27;;;1.53;;
11111;SDS011;5609;49.466;8.468;2023-07-29T12:39:57;3.37;;;1.73;;
11111;SDS011;5609;49.466;8.468;2023-07-29T12:42:25;3.17;;;1.50;;
11111;SDS011;5609;49.466;8.468;2023-07-29T12:44:51;1.60;;;1.50;;
11111;SDS011;5609;49.466;8.468;2023-07-29T12:47:18;3.07;;;1.50;;
11111;SDS011;5609;49.466;8.468;2023-07-29T12:49:45;1.80;;;1.60;;
11111;SDS011;5609;49.466;8.468;2023-07-29T12:52:12;1.90;;;1.70;;
11111;SDS011;5609;49.466;8.468;2023-07-29T12:54:41;2.00;;;1.70;;
11111;SDS011;5609;49.466;8.468;2023-07-29T12:57:09;2.83;;;1.50;;
11111;SDS011;5609;49.466;8.468;2023-07-29T12:59:36;2.73;;;1.40;;
11111;SDS011;5609;49.466;8.468;2023-07-29T13:02:03;2.00;;;1.60;;
11111;SDS011;5609;49.466;8.468;2023-07-29T13:04:30;1.60;;;1.50;;
11111;SDS011;5609;49.466;8.468;2023-07-29T13:06:57;1.77;;;1.67;;
11111;SDS011;5609;49.466;8.468;2023-07-29T13:09:25;1.60;;;1.50;;
11111;SDS011;5609;49.466;8.468;2023-07-29T13:11:53;1.63;;;1.50;;
11111;SDS011;5609;49.466;8.468;2023-07-29T13:14:20;2.60;;;1.53;;
11111;SDS011;5609;49.466;8.468;2023-07-29T13:16:47;1.67;;;1.57;;
11111;SDS011;5609;49.466;8.468;2023-07-29T13:19:14;2.23;;;1.50;;
11111;SDS011;5609;49.466;8.468;2023-07-29T13:21:41;2.10;;;1.70;;
11111;SDS011;5609;49.466;8.468;2023-07-29T13:24:08;3.97;;;1.70;;
11111;SDS011;5609;49.466;8.468;2023-07-29T13:26:35;1.83;;;1.60;;
11111;SDS011;5609;49.466;8.468;2023-07-29T13:29:03;1.77;;;1.50;;
11111;SDS011;5609;49.466;8.468;2023-07-29T13:31:30;2.13;;;1.70;;
11111;SDS011;5609;49.466;8.468;2023-07-29T13:33:57;1.70;;;1.43;;
11111;SDS011;5609;49.466;8.468;2023-07-29T13:36:24;2.63;;;1.37;;
11111;SDS011;5609;49.466;8.468;2023-07-29T13:38:51;1.73;;;1.40;;
11111;SDS011;5609;49.466;8.468;2023-07-29T13:41:18;2.13;;;1.50;;
11111;SDS011;5609;49.466;8.468;2023-07-29T13:43:45;1.67;;;1.50;;
11111;SDS011;5609;49.466;8.468;2023-07-29T13:46:13;2.83;;;1.80;;
11111;SDS011;5609;49.466;8.468;2023-07-29T13:48:40;2.13;;;1.60;;
11111;SDS011;5609;49.466;8.468;2023-07-29T13:51:07;1.83;;;1.73;;
11111;SDS011;5609;49.466;8.468;2023-07-29T13:53:34;1.60;;;1.50;;
11111;SDS011;5609;49.466;8.468;2023-07-29T13:56:01;3.17;;;1.70;;
11111;SDS011;5609;49.466;8.468;2023-07-29T13:58:28;1.53;;;1.30;;
11111;SDS011;5609;49.466;8.468;2023-07-29T14:00:55;2.00;;;1.67;;
11111;SDS011;5609;49.466;8.468;2023-07-29T14:03:23;2.73;;;1.73;;
11111;SDS011;5609;49.466;8.468;2023-07-29T14:05:50;4.57;;;1.47;;
11111;SDS011;5609;49.466;8.468;2023-07-29T14:08:17;1.60;;;1.50;;
11111;SDS011;5609;49.466;8.468;2023-07-29T14:10:44;1.50;;;1.40;;
11111;SDS011;5609;49.466;8.468;2023-07-29T14:13:11;1.60;;;1.40;;
11111;SDS011;5609;49.466;8.468;2023-07-29T14:15:38;1.80;;;1.60;;
11111;SDS011;5609;49.466;8.468;2023-07-29T14:18:05;1.97;;;1.50;;
11111;SDS011;5609;49.466;8.468;2023-07-29T14:20:34;1.70;;;1.60;;
11111;SDS011;5609;49.466;8.468;2023-07-29T14:23:01;1.27;;;1.27;;
11111;SDS011;5609;49.466;8.468;2023-07-29T14:25:28;1.67;;;1.50;;
11111;SDS011;5609;49.466;8.468;2023-07-29T14:27:54;2.20;;;1.60;;
11111;SDS011;5609;49.466;8.468;2023-07-29T14:30:21;2.57;;;1.50;;
11111;SDS011;5609;49.466;8.468;2023-07-29T14:32:49;1.60;;;1.50;;
11111;SDS011;5609;49.466;8.468;2023-07-29T14:35:16;2.10;;;1.43;;
11111;SDS011;5609;49.466;8.468;2023-07-29T14:37:44;1.63;;;1.53;;
11111;SDS011;5609;49.466;8.468;2023-07-29T14:40:11;1.70;;;1.47;;
11111;SDS011;5609;49.466;8.468;2023-07-29T14:42:38;1.50;;;1.40;;
11111;SDS011;5609;49.466;8.468;2023-07-29T14:45:05;2.13;;;1.43;;
11111;SDS011;5609;49.466;8.468;2023-07-29T14:47:32;1.70;;;1.60;;
11111;SDS011;5609;49.466;8.468;2023-07-29T14:50:00;1.50;;;1.40;;
11111;SDS011;5609;49.466;8.468;2023-07-29T14:52:27;1.60;;;1.50;;
11111;SDS011;5609;49.466;8.468;2023-07-29T14:54:55;1.80;;;1.53;;
11111;SDS011;5609;49.466;8.468;2023-07-29T14:57:22;1.90;;;1.50;;
11111;SDS011;5609;49.466;8.468;2023-07-29T14:59:49;1.83;;;1.70;;
11111;SDS011;5609;49.466;8.468;2023-07-29T15:02:16;1.70;;;1.60;;
11111;SDS011;5609;49.466;8.468;2023-07-29T15:04:43;2.00;;;1.80;;
11111;SDS011;5609;49.466;8.468;2023-07-29T15:07:10;1.63;;;1.53;;